Time;durP1;ratioP1;P1;durP2;ratioP2;P2;SDS_P1;SDS_P2;PMS_P1;PMS_P2;Temp;Humidity;BMP_temperature;BMP_pressure;BME280_temperature;BME280_humidity;BME280_pressure;Samples;Min_cycle;Max_cycle;Signal;HPM_P1;HPM_P2
2022/10/21 00:00:57;;;;;;;2.70;2.40;;;17.50;66.50;;;;;;5053881;28;20172;-72
2022/10/21 00:03:23;;;;;;;2.65;2.45;;;17.40;66.40;;;;;;5054438;28;20274;-72
2022/10/21 00:05:48;;;;;;;2.40;2.20;;;17.40;66.40;;;;;;5053301;28;20206;-71
2022/10/21 00:08:14;;;;;;;2.47;2.28;;;17.40;66.40;;;;;;5053964;28;20183;-71
2022/10/21 00:10:39;;;;;;;2.60;2.40;;;17.40;66.40;;;;;;5054019;28;20199;-72
2022/10/21 00:13:05;;;;;;;2.50;2.30;;;17.40;66.50;;;;;;5052917;28;20222;-71
2022/10/21 00:15:30;;;;;;;3.22;2.72;;;17.40;66.50;;;;;;5053971;28;20182;-71
2022/10/21 00:17:56;;;;;;;2.42;2.22;;;17.40;66.50;;;;;;5053849;28;20207;-71
2022/10/21 00:20:21;;;;;;;2.58;2.38;;;17.40;66.60;;;;;;5053358;28;20254;-71
2022/10/21 00:22:47;;;;;;;2.63;2.40;;;17.40;66.50;;;;;;5053963;28;20203;-71
2022/10/21 00:25:12;;;;;;;2.80;2.58;;;17.40;66.50;;;;;;5053518;28;20258;-71
2022/10/21 00:27:38;;;;;;;3.42;2.78;;;17.40;66.60;;;;;;5053132;28;20171;-71
2022/10/21 00:30:04;;;;;;;2.70;2.50;;;17.40;66.50;;;;;;5053331;28;20171;-71
2022/10/21 00:32:30;;;;;;;2.90;2.70;;;17.40;66.50;;;;;;5054100;28;20202;-71
2022/10/21 00:34:55;;;;;;;3.05;2.75;;;17.40;66.50;;;;;;5052858;28;20552;-70
2022/10/21 00:37:21;;;;;;;2.65;2.33;;;17.40;66.50;;;;;;5053438;28;20716;-70
2022/10/21 00:39:46;;;;;;;2.65;2.45;;;17.40;66.60;;;;;;5052710;28;20179;-72
2022/10/21 00:42:19;;;;;;;2.78;2.55;;;17.40;66.60;;;;;;5052526;28;20641;-71
2022/10/21 00:45:03;;;;;;;2.63;2.42;;;17.40;66.60;;;;;;5053261;28;20637;-72
2022/10/21 00:47:29;;;;;;;2.78;2.58;;;17.40;66.60;;;;;;5052669;28;20190;-73
2022/10/21 00:49:59;;;;;;;2.55;2.35;;;17.40;66.60;;;;;;5051927;28;20179;-72
2022/10/21 00:52:24;;;;;;;2.72;2.53;;;17.30;66.50;;;;;;5051774;28;20228;-72
2022/10/21 00:54:51;;;;;;;3.38;2.83;;;17.40;66.60;;;;;;5051201;28;20167;-71
2022/10/21 00:57:17;;;;;;;2.63;2.42;;;17.40;66.60;;;;;;5051583;28;20224;-72
2022/10/21 00:59:45;;;;;;;2.60;2.40;;;17.40;66.60;;;;;;5053062;28;20636;-72
2022/10/21 01:02:10;;;;;;;2.72;2.53;;;17.40;66.70;;;;;;5050971;28;20202;-71
2022/10/21 01:04:36;;;;;;;2.75;2.55;;;17.30;66.60;;;;;;5051871;28;20515;-72
2022/10/21 01:07:01;;;;;;;3.03;2.83;;;17.40;66.70;;;;;;5051579;28;20672;-72
2022/10/21 01:09:28;;;;;;;2.63;2.42;;;17.30;66.60;;;;;;5052130;28;20644;-72
2022/10/21 01:11:53;;;;;;;3.22;2.80;;;17.30;66.60;;;;;;5051497;28;20182;-72
2022/10/21 01:14:45;;;;;;;3.15;2.85;;;17.40;66.70;;;;;;5051638;28;20167;-70
2022/10/21 01:17:37;;;;;;;3.10;2.55;;;17.40;66.70;;;;;;5051082;28;20221;-71
2022/10/21 01:20:19;;;;;;;2.90;2.70;;;17.30;66.70;;;;;;5051574;28;20629;-70
2022/10/21 01:23:12;;;;;;;2.80;2.60;;;17.30;66.70;;;;;;5051069;28;20175;-71
2022/10/21 01:25:59;;;;;;;2.38;2.28;;;17.30;66.80;;;;;;5052658;28;20606;-72
2022/10/21 01:28:38;;;;;;;3.25;2.53;;;17.30;66.80;;;;;;5052610;28;20197;-71
2022/10/21 01:31:24;;;;;;;2.78;2.58;;;17.30;66.80;;;;;;5050367;28;20528;-71
2022/10/21 01:33:58;;;;;;;2.60;2.40;;;17.30;66.80;;;;;;5051529;28;20618;-70
2022/10/21 01:36:38;;;;;;;3.10;2.90;;;17.30;66.80;;;;;;5050677;28;20238;-71
2022/10/21 01:39:28;;;;;;;2.65;2.33;;;17.30;66.80;;;;;;5050859;28;20175;-71
2022/10/21 01:42:35;;;;;;;2.88;2.58;;;17.30;66.90;;;;;;5052444;28;20178;-73
2022/10/21 01:45:27;;;;;;;2.67;2.47;;;17.30;67.00;;;;;;5050179;28;20190;-72
2022/10/21 01:47:53;;;;;;;2.30;2.13;;;17.30;67.00;;;;;;5049226;28;20183;-73
2022/10/21 01:50:27;;;;;;;2.50;2.30;;;17.30;66.90;;;;;;5050353;28;20179;-72
2022/10/21 01:52:58;;;;;;;2.80;2.60;;;17.30;67.00;;;;;;5050748;28;20183;-72
2022/10/21 01:55:26;;;;;;;2.67;2.47;;;17.30;67.00;;;;;;5050840;28;20171;-72
2022/10/21 01:57:53;;;;;;;3.55;2.65;;;17.30;67.10;;;;;;5050557;28;20210;-72
2022/10/21 02:00:18;;;;;;;2.70;2.25;;;17.20;66.90;;;;;;5051001;28;20181;-71
2022/10/21 02:02:46;;;;;;;2.70;2.50;;;17.20;67.00;;;;;;5051043;28;20547;-72
2022/10/21 02:05:22;;;;;;;2.90;2.65;;;17.20;67.00;;;;;;5050109;28;20171;-72
2022/10/21 02:07:48;;;;;;;2.80;2.60;;;17.20;67.00;;;;;;5051080;28;20178;-71
2022/10/21 02:10:14;;;;;;;2.53;2.33;;;17.20;67.00;;;;;;5050712;28;20175;-72
2022/10/21 02:12:41;;;;;;;3.72;2.65;;;17.20;67.10;;;;;;5050194;28;20316;-71
2022/10/21 02:15:07;;;;;;;4.72;2.72;;;17.20;67.10;;;;;;5050795;28;20653;-71
2022/10/21 02:17:33;;;;;;;3.40;2.67;;;17.20;67.10;;;;;;5051108;28;20215;-71
2022/10/21 02:19:59;;;;;;;2.75;2.55;;;17.20;67.20;;;;;;5049914;28;20175;-71
2022/10/21 02:22:25;;;;;;;2.60;2.38;;;17.20;67.20;;;;;;5050763;28;20203;-71
2022/10/21 02:25:04;;;;;;;2.75;2.55;;;17.20;67.10;;;;;;5052150;28;20198;-71
2022/10/21 02:27:30;;;;;;;3.20;2.42;;;17.20;67.10;;;;;;5050328;28;20183;-71
2022/10/21 02:29:57;;;;;;;3.42;2.50;;;17.10;67.20;;;;;;5050946;28;20167;-73
2022/10/21 02:32:40;;;;;;;2.80;2.60;;;17.20;67.20;;;;;;5050076;28;20202;-70
2022/10/21 02:35:12;;;;;;;2.45;2.28;;;17.20;67.20;;;;;;5051703;28;20221;-71
2022/10/21 02:38:02;;;;;;;2.88;2.67;;;17.20;67.20;;;;;;5051838;28;20624;-71
2022/10/21 02:40:42;;;;;;;3.20;2.70;;;17.20;67.30;;;;;;5051086;28;20540;-71
2022/10/21 02:43:20;;;;;;;2.60;2.40;;;17.20;67.20;;;;;;5050377;28;20171;-72
2022/10/21 02:45:46;;;;;;;2.60;2.40;;;17.20;67.30;;;;;;5050700;28;20657;-73
2022/10/21 02:48:12;;;;;;;2.58;2.38;;;17.10;67.20;;;;;;5049612;28;20221;-71
2022/10/21 02:50:37;;;;;;;2.85;2.65;;;17.10;67.20;;;;;;5051851;28;20186;-72
2022/10/21 02:53:03;;;;;;;2.92;2.50;;;17.10;67.20;;;;;;5050308;28;20175;-72
2022/10/21 02:55:28;;;;;;;3.08;2.55;;;17.20;67.30;;;;;;5050901;28;20179;-71
2022/10/21 02:57:54;;;;;;;2.90;2.70;;;17.20;67.30;;;;;;5051642;28;20290;-72
2022/10/21 03:00:19;;;;;;;2.72;2.53;;;17.10;67.30;;;;;;5050855;28;20179;-71
2022/10/21 03:02:45;;;;;;;2.78;2.58;;;17.10;67.20;;;;;;5051848;28;20175;-72
2022/10/21 03:05:11;;;;;;;2.55;2.35;;;17.10;67.20;;;;;;5052913;28;20171;-71
2022/10/21 03:07:37;;;;;;;2.75;2.55;;;17.10;67.20;;;;;;5054737;28;20503;-72
2022/10/21 03:10:03;;;;;;;2.70;2.50;;;17.10;67.30;;;;;;5055097;28;20689;-72
2022/10/21 03:12:29;;;;;;;2.75;2.55;;;17.10;67.20;;;;;;5054881;28;20226;-71
2022/10/21 03:14:54;;;;;;;2.47;2.28;;;17.10;67.20;;;;;;5054225;28;20171;-71
2022/10/21 03:17:20;;;;;;;2.30;2.20;;;17.10;67.20;;;;;;5055040;28;20215;-71
2022/10/21 03:19:45;;;;;;;2.17;2.08;;;17.10;67.20;;;;;;5055269;28;20555;-71
2022/10/21 03:22:11;;;;;;;2.13;2.00;;;17.10;67.20;;;;;;5053949;28;20717;-71
2022/10/21 03:24:36;;;;;;;2.40;2.30;;;17.10;67.20;;;;;;5054897;28;20266;-72
2022/10/21 03:27:02;;;;;;;2.70;2.50;;;17.10;67.30;;;;;;5054689;28;20224;-72
2022/10/21 03:29:27;;;;;;;3.05;2.50;;;17.10;67.20;;;;;;5053064;28;20254;-72
2022/10/21 03:31:53;;;;;;;2.53;2.33;;;17.00;67.20;;;;;;5054858;28;20232;-71
2022/10/21 03:34:18;;;;;;;2.78;2.58;;;17.10;67.20;;;;;;5054569;28;20254;-72
2022/10/21 03:36:44;;;;;;;2.35;2.17;;;17.10;67.30;;;;;;5054007;28;20206;-71
2022/10/21 03:39:10;;;;;;;2.80;2.60;;;17.00;67.20;;;;;;5054130;28;20171;-72
2022/10/21 03:41:35;;;;;;;2.53;2.35;;;17.10;67.30;;;;;;5054694;28;20176;-71
2022/10/21 03:44:01;;;;;;;2.42;2.22;;;17.10;67.30;;;;;;5053493;28;20182;-72
2022/10/21 03:46:27;;;;;;;2.83;2.58;;;17.10;67.20;;;;;;5054681;28;20182;-72
2022/10/21 03:48:52;;;;;;;2.50;2.30;;;17.10;67.30;;;;;;5054498;28;20179;-72
2022/10/21 03:51:18;;;;;;;2.70;2.50;;;17.00;67.20;;;;;;5053161;28;20171;-72
2022/10/21 03:53:43;;;;;;;2.70;2.50;;;17.00;67.20;;;;;;5054476;28;20171;-71
2022/10/21 03:56:09;;;;;;;2.03;1.92;;;17.00;67.20;;;;;;5054087;28;20674;-72
2022/10/21 03:58:34;;;;;;;2.50;2.30;;;17.00;67.20;;;;;;5053580;28;20693;-71
2022/10/21 04:01:00;;;;;;;2.80;2.60;;;17.00;67.20;;;;;;5054237;28;20221;-72
2022/10/21 04:03:25;;;;;;;3.20;2.17;;;17.00;67.20;;;;;;5054493;28;20179;-71
2022/10/21 04:05:51;;;;;;;2.60;2.40;;;17.00;67.20;;;;;;5053634;28;20183;-71
2022/10/21 04:08:16;;;;;;;2.58;2.38;;;17.00;67.20;;;;;;5053937;28;20179;-71
2022/10/21 04:10:44;;;;;;;2.70;2.50;;;17.00;67.20;;;;;;5053446;28;20642;-71
2022/10/21 04:13:09;;;;;;;2.50;2.30;;;17.00;67.20;;;;;;5053622;28;20223;-71
2022/10/21 04:15:35;;;;;;;2.45;2.25;;;17.00;67.20;;;;;;5053998;28;20444;-70
2022/10/21 04:18:00;;;;;;;2.28;2.15;;;17.00;67.20;;;;;;5052398;28;20750;-70
2022/10/21 04:20:26;;;;;;;2.28;2.15;;;17.00;67.50;;;;;;5053949;28;20171;-70
2022/10/21 04:22:51;;;;;;;2.60;2.40;;;17.00;67.20;;;;;;5054384;28;20175;-71
2022/10/21 04:25:17;;;;;;;2.40;2.20;;;17.00;67.20;;;;;;5052835;28;20573;-71
2022/10/21 04:27:42;;;;;;;2.38;2.20;;;17.00;67.30;;;;;;5053695;28;20638;-71
2022/10/21 04:30:08;;;;;;;2.40;2.20;;;17.00;67.30;;;;;;5053599;28;20175;-71
2022/10/21 04:32:34;;;;;;;2.65;2.45;;;17.00;67.20;;;;;;5053514;28;20202;-71
2022/10/21 04:34:59;;;;;;;3.00;2.80;;;17.00;67.30;;;;;;5053425;28;20586;-71
2022/10/21 04:37:25;;;;;;;2.45;2.25;;;16.90;67.20;;;;;;5053438;28;20365;-70
2022/10/21 04:39:50;;;;;;;2.88;2.42;;;17.00;67.30;;;;;;5052708;28;20718;-72
2022/10/21 04:42:16;;;;;;;2.38;2.22;;;16.90;67.20;;;;;;5052975;28;20282;-71
2022/10/21 04:44:41;;;;;;;2.63;2.20;;;16.90;67.20;;;;;;5053208;28;20571;-72
2022/10/21 04:47:07;;;;;;;2.70;2.50;;;16.90;67.30;;;;;;5052150;28;20175;-72
2022/10/21 04:49:32;;;;;;;2.42;2.25;;;16.90;67.30;;;;;;5053418;28;20229;-72
2022/10/21 04:51:58;;;;;;;2.78;2.35;;;16.90;67.20;;;;;;5052979;28;20515;-72
2022/10/21 04:54:23;;;;;;;2.30;2.10;;;16.90;67.20;;;;;;5052463;28;20171;-71
2022/10/21 04:56:49;;;;;;;3.05;2.85;;;16.90;67.20;;;;;;5051900;28;20253;-72
2022/10/21 04:59:14;;;;;;;2.40;2.20;;;16.90;67.30;;;;;;5052813;28;20554;-71
2022/10/21 05:01:40;;;;;;;2.72;2.53;;;16.90;67.30;;;;;;5052288;28;20334;-72
2022/10/21 05:04:05;;;;;;;2.40;2.25;;;16.90;67.30;;;;;;5052864;28;20207;-72
2022/10/21 05:06:31;;;;;;;2.33;2.20;;;16.90;67.30;;;;;;5053166;28;20203;-72
2022/10/21 05:08:56;;;;;;;2.33;2.10;;;16.90;67.30;;;;;;5052072;28;20214;-72
2022/10/21 05:11:22;;;;;;;2.63;2.10;;;16.90;67.30;;;;;;5051603;28;20250;-71
2022/10/21 05:13:47;;;;;;;2.30;2.20;;;16.90;67.30;;;;;;5052610;28;20227;-71
2022/10/21 05:16:13;;;;;;;2.05;1.95;;;16.90;67.30;;;;;;5051718;28;20171;-71
2022/10/21 05:18:38;;;;;;;2.58;2.38;;;16.90;67.30;;;;;;5052793;28;20189;-71
2022/10/21 05:21:04;;;;;;;2.65;2.20;;;16.90;67.30;;;;;;5051827;28;20209;-71
2022/10/21 05:23:30;;;;;;;2.03;1.92;;;16.90;67.30;;;;;;5052526;28;20235;-71
2022/10/21 05:25:55;;;;;;;2.60;2.40;;;16.90;67.30;;;;;;5052599;28;20205;-72
2022/10/21 05:28:21;;;;;;;2.33;2.22;;;16.90;67.30;;;;;;5051670;28;20175;-72
2022/10/21 05:30:46;;;;;;;2.47;2.30;;;16.90;67.30;;;;;;5052500;28;20172;-71
2022/10/21 05:33:12;;;;;;;2.72;2.53;;;16.90;67.30;;;;;;5052297;28;20182;-70
2022/10/21 05:35:37;;;;;;;2.47;2.35;;;16.80;67.20;;;;;;5052420;28;20175;-70
2022/10/21 05:38:03;;;;;;;2.30;2.08;;;16.90;67.40;;;;;;5052636;28;20213;-70
2022/10/21 05:40:29;;;;;;;2.20;2.00;;;16.80;67.30;;;;;;5052746;28;20752;-71
2022/10/21 05:42:55;;;;;;;2.20;2.10;;;16.90;67.30;;;;;;5052243;28;20194;-71
2022/10/21 05:45:20;;;;;;;2.67;2.47;;;16.90;67.40;;;;;;5052719;28;20171;-72
2022/10/21 05:47:46;;;;;;;2.45;2.25;;;16.80;67.20;;;;;;5052910;28;20179;-72
2022/10/21 05:50:12;;;;;;;2.40;2.30;;;16.90;67.40;;;;;;5051891;28;20224;-72
2022/10/21 05:52:38;;;;;;;2.50;2.30;;;16.90;67.40;;;;;;5052755;28;20175;-72
2022/10/21 05:55:04;;;;;;;2.83;2.50;;;16.80;67.30;;;;;;5052566;28;20171;-71
2022/10/21 05:57:33;;;;;;;2.67;2.47;;;16.80;67.30;;;;;;5052059;28;20305;-71
2022/10/21 05:59:59;;;;;;;2.42;2.22;;;16.80;67.30;;;;;;5051409;28;20179;-71
2022/10/21 06:02:24;;;;;;;2.53;2.33;;;16.80;67.30;;;;;;5052911;28;20179;-71
2022/10/21 06:04:50;;;;;;;2.50;2.30;;;16.80;68.20;;;;;;5052150;28;20174;-72
2022/10/21 06:07:15;;;;;;;2.42;2.22;;;16.80;67.40;;;;;;5052440;28;20183;-71
2022/10/21 06:09:41;;;;;;;2.28;2.17;;;16.80;67.30;;;;;;5052677;28;20221;-71
2022/10/21 06:12:06;;;;;;;2.20;2.00;;;16.80;67.30;;;;;;5051282;28;20219;-71
2022/10/21 06:14:34;;;;;;;2.40;2.30;;;16.80;67.30;;;;;;5052575;28;20174;-71
2022/10/21 06:16:59;;;;;;;2.20;2.10;;;16.80;67.30;;;;;;5052165;28;20281;-71
2022/10/21 06:19:25;;;;;;;2.40;2.30;;;16.80;67.30;;;;;;5051847;28;20578;-71
2022/10/21 06:21:53;;;;;;;2.15;1.95;;;16.80;67.30;;;;;;5052506;28;20705;-71
2022/10/21 06:24:18;;;;;;;2.80;2.60;;;16.80;67.30;;;;;;5051447;28;20174;-72
2022/10/21 06:26:44;;;;;;;2.70;2.50;;;16.70;67.20;;;;;;5052537;28;20171;-71
2022/10/21 06:29:09;;;;;;;2.38;2.25;;;16.80;67.30;;;;;;5052329;28;20168;-71
2022/10/21 06:31:35;;;;;;;2.58;2.38;;;16.80;67.30;;;;;;5051543;28;20179;-71
2022/10/21 06:34:00;;;;;;;2.25;2.10;;;16.80;67.30;;;;;;5052191;28;20258;-71
2022/10/21 06:36:26;;;;;;;2.20;2.10;;;16.80;67.20;;;;;;5052386;28;20206;-71
2022/10/21 06:38:51;;;;;;;2.40;2.20;;;16.80;67.20;;;;;;5051775;28;20569;-71
2022/10/21 06:41:17;;;;;;;2.22;2.13;;;16.90;67.20;;;;;;5055459;28;20179;-72
2022/10/21 06:43:43;;;;;;;2.15;2.05;;;16.90;67.10;;;;;;5056303;28;20203;-72
2022/10/21 06:46:10;;;;;;;2.40;2.20;;;17.00;67.20;;;;;;5055202;28;20205;-73
2022/10/21 06:48:36;;;;;;;2.58;2.38;;;17.00;67.10;;;;;;5056171;28;20180;-72
2022/10/21 06:51:06;;;;;;;2.08;1.98;;;17.00;67.00;;;;;;5055734;28;20626;-72
2022/10/21 06:53:32;;;;;;;2.05;1.95;;;17.10;67.00;;;;;;5055164;28;20183;-72
2022/10/21 06:56:05;;;;;;;2.78;2.58;;;17.20;66.90;;;;;;5055588;28;20625;-72
2022/10/21 06:58:30;;;;;;;2.63;2.42;;;17.20;66.80;;;;;;5056017;28;20240;-72
2022/10/21 07:00:56;;;;;;;1.95;1.85;;;17.30;66.70;;;;;;5053843;28;20638;-72
2022/10/21 07:03:22;;;;;;;2.00;1.90;;;17.30;66.60;;;;;;5055895;28;20185;-72
2022/10/21 07:05:47;;;;;;;2.50;1.98;;;17.30;66.50;;;;;;5055771;28;20206;-72
2022/10/21 07:08:13;;;;;;;1.90;1.80;;;17.30;66.50;;;;;;5054644;28;20206;-72
2022/10/21 07:10:41;;;;;;;1.85;1.75;;;17.30;66.50;;;;;;5055491;28;20622;-73
2022/10/21 07:13:06;;;;;;;2.50;2.30;;;17.20;66.50;;;;;;5055089;28;20775;-72
2022/10/21 07:15:32;;;;;;;2.45;2.03;;;17.20;66.50;;;;;;5054765;28;20270;-71
2022/10/21 07:17:59;;;;;;;2.40;2.20;;;17.30;66.50;;;;;;5055240;28;20314;-71
2022/10/21 07:20:26;;;;;;;2.20;2.00;;;17.20;66.50;;;;;;5055463;28;20644;-71
2022/10/21 07:22:51;;;;;;;2.67;2.28;;;17.30;66.60;;;;;;5054599;28;20187;-72
2022/10/21 07:25:17;;;;;;;2.90;2.63;;;17.20;66.60;;;;;;5055255;28;20583;-70
2022/10/21 07:27:42;;;;;;;3.05;2.33;;;17.20;66.70;;;;;;5054511;28;20638;-71
2022/10/21 07:30:08;;;;;;;3.13;2.35;;;17.20;66.80;;;;;;5054258;28;20175;-71
2022/10/21 07:32:34;;;;;;;3.58;2.38;;;17.20;67.00;;;;;;5054403;28;20228;-70
2022/10/21 07:34:59;;;;;;;2.25;2.05;;;17.20;67.00;;;;;;5053367;28;20171;-71
2022/10/21 07:37:25;;;;;;;2.80;2.60;;;17.20;67.00;;;;;;5054627;28;20203;-70
2022/10/21 07:39:50;;;;;;;2.50;2.10;;;17.20;67.10;;;;;;5054103;28;20229;-70
2022/10/21 07:42:16;;;;;;;2.58;2.38;;;17.20;67.10;;;;;;5053458;28;20454;-71
2022/10/21 07:44:42;;;;;;;3.63;2.28;;;17.30;67.30;;;;;;5054919;28;20181;-72
2022/10/21 07:47:07;;;;;;;3.85;2.67;;;17.30;67.20;;;;;;5054906;28;20171;-72
2022/10/21 07:49:33;;;;;;;5.35;2.72;;;17.30;67.10;;;;;;5054315;28;20571;-70
2022/10/21 07:51:58;;;;;;;3.75;2.38;;;17.30;67.10;;;;;;5054235;28;21023;-71
2022/10/21 07:54:24;;;;;;;2.65;2.30;;;17.40;67.30;;;;;;5055036;28;20322;-73
2022/10/21 07:56:50;;;;;;;4.95;2.80;;;17.40;67.30;;;;;;5054257;28;20214;-74
2022/10/21 07:59:16;;;;;;;4.38;2.55;;;17.40;67.30;;;;;;5054632;28;20206;-73
2022/10/21 08:01:46;;;;;;;3.67;2.55;;;17.40;67.20;;;;;;5054772;28;20180;-73
2022/10/21 08:04:14;;;;;;;4.38;2.65;;;17.40;67.20;;;;;;5053632;28;20179;-69
2022/10/21 08:06:40;;;;;;;9.20;3.28;;;17.50;67.20;;;;;;5054713;28;20183;-70
2022/10/21 08:09:06;;;;;;;3.17;2.13;;;17.50;67.20;;;;;;5054431;28;20202;-72
2022/10/21 08:11:32;;;;;;;3.53;2.65;;;17.50;67.20;;;;;;5052818;28;20670;-71
2022/10/21 08:13:58;;;;;;;3.90;2.38;;;17.50;67.10;;;;;;5054045;28;20677;-70
2022/10/21 08:16:23;;;;;;;3.83;2.47;;;17.50;67.40;;;;;;5054571;28;20210;-70
2022/10/21 08:18:49;;;;;;;2.78;2.45;;;17.50;67.30;;;;;;5053329;28;20229;-72
2022/10/21 08:21:15;;;;;;;2.40;2.20;;;17.50;67.30;;;;;;5054413;28;20179;-72
2022/10/21 08:23:40;;;;;;;2.30;2.10;;;17.50;67.40;;;;;;5054520;28;20171;-72
2022/10/21 08:26:08;;;;;;;4.53;2.70;;;17.60;67.40;;;;;;5053355;28;20596;-70
2022/10/21 08:28:34;;;;;;;3.22;2.58;;;17.60;67.40;;;;;;5052945;28;20171;-69
2022/10/21 08:31:10;;;;;;;5.18;2.30;;;17.60;67.50;;;;;;5052913;28;20179;-71
2022/10/21 08:33:36;;;;;;;3.60;2.05;;;17.50;67.50;;;;;;5053979;28;20269;-74
2022/10/21 08:36:15;;;;;;;4.30;2.20;;;17.60;67.50;;;;;;5054005;28;20214;-73
2022/10/21 08:38:41;;;;;;;3.03;2.20;;;17.60;67.60;;;;;;5053682;28;20187;-71
2022/10/21 08:41:33;;;;;;;3.88;2.08;;;17.60;67.70;;;;;;5053732;28;20232;-72
2022/10/21 08:44:16;;;;;;;3.75;2.42;;;17.60;67.80;;;;;;5049814;28;20579;-72
2022/10/21 08:46:44;;;;;;;3.28;2.30;;;17.50;67.80;;;;;;5053326;28;20179;-72
2022/10/21 08:49:23;;;;;;;3.53;2.78;;;17.50;67.90;;;;;;5035993;28;20175;-73
2022/10/21 08:52:12;;;;;;;3.60;2.30;;;17.50;67.80;;;;;;5036385;28;20510;-73
2022/10/21 08:54:46;;;;;;;3.83;2.33;;;17.50;67.80;;;;;;5052217;28;20190;-72
2022/10/21 08:57:12;;;;;;;3.83;2.25;;;17.60;67.80;;;;;;5052227;28;20209;-72
2022/10/21 08:59:40;;;;;;;4.35;2.00;;;17.50;67.80;;;;;;5051972;28;20167;-72
2022/10/21 09:02:19;;;;;;;2.97;2.55;;;17.60;67.70;;;;;;5051825;28;20179;-72
2022/10/21 09:05:03;;;;;;;2.45;2.20;;;17.60;67.70;;;;;;5052372;28;20626;-73
2022/10/21 09:07:39;;;;;;;3.35;2.35;;;17.50;67.70;;;;;;5052704;28;20232;-72
2022/10/21 09:10:17;;;;;;;3.30;2.28;;;17.60;67.70;;;;;;5036539;28;20183;-69
2022/10/21 09:13:06;;;;;;;5.13;2.20;;;17.60;67.70;;;;;;5035915;28;20247;-72
2022/10/21 09:15:47;;;;;;;4.45;2.17;;;17.60;67.80;;;;;;5053612;28;20186;-72
2022/10/21 09:18:33;;;;;;;3.85;2.38;;;17.60;67.90;;;;;;5051755;28;20214;-72
2022/10/21 09:21:13;;;;;;;2.47;2.20;;;17.50;68.00;;;;;;5035166;28;20586;-72
2022/10/21 09:23:48;;;;;;;2.42;2.22;;;17.50;68.00;;;;;;5052079;28;20214;-72
2022/10/21 09:26:21;;;;;;;2.80;2.60;;;17.50;68.10;;;;;;5051873;28;20185;-72
2022/10/21 09:28:46;;;;;;;2.22;2.03;;;17.50;68.10;;;;;;5051368;28;20257;-71
2022/10/21 09:31:15;;;;;;;3.38;2.50;;;17.40;68.10;;;;;;5053769;28;20313;-71
2022/10/21 09:33:42;;;;;;;4.38;2.50;;;17.50;68.30;;;;;;5057439;28;20198;-72
2022/10/21 09:36:11;;;;;;;4.00;2.33;;;17.50;68.20;;;;;;5050709;28;20250;-73
2022/10/21 09:38:44;;;;;;;4.88;2.33;;;17.50;68.30;;;;;;5035496;28;20221;-72
2022/10/21 09:41:20;;;;;;;4.57;2.33;;;17.50;68.40;;;;;;5035445;28;20626;-74
2022/10/21 09:43:47;;;;;;;4.40;2.40;;;17.50;68.50;;;;;;5052019;28;20182;-73
2022/10/21 09:46:13;;;;;;;2.53;2.22;;;17.50;68.50;;;;;;5052659;28;20178;-73
2022/10/21 09:48:46;;;;;;;4.95;2.53;;;17.50;68.60;;;;;;5051978;28;20187;-73
2022/10/21 09:51:15;;;;;;;3.60;2.20;;;17.50;68.70;;;;;;5052704;28;20175;-72
2022/10/21 09:53:47;;;;;;;4.38;2.25;;;17.50;68.50;;;;;;5051724;28;20186;-73
2022/10/21 09:56:39;;;;;;;7.95;2.72;;;17.50;68.50;;;;;;5050567;28;20175;-72
2022/10/21 09:59:12;;;;;;;3.30;2.17;;;17.40;68.50;;;;;;5035891;28;20260;-72
2022/10/21 10:01:38;;;;;;;3.30;2.13;;;17.40;68.60;;;;;;5052616;28;20179;-73
2022/10/21 10:04:21;;;;;;;3.10;2.15;;;17.40;68.60;;;;;;5034240;28;20171;-72
2022/10/21 10:06:46;;;;;;;3.50;3.03;;;17.40;68.60;;;;;;5052727;28;20664;-72
2022/10/21 10:09:15;;;;;;;3.35;2.15;;;17.40;68.60;;;;;;5051162;28;20171;-71
2022/10/21 10:12:19;;;;;;;4.25;2.20;;;17.40;68.60;;;;;;5051728;28;20648;-72
2022/10/21 10:14:45;;;;;;;2.33;2.13;;;17.40;68.50;;;;;;5050234;28;20219;-72
2022/10/21 10:17:20;;;;;;;2.58;2.13;;;17.40;68.60;;;;;;5055676;28;20242;-72
2022/10/21 10:20:05;;;;;;;4.13;2.05;;;17.30;69.30;;;;;;5056736;28;20222;-72
2022/10/21 10:22:40;;;;;;;3.15;2.00;;;17.40;68.60;;;;;;5056789;28;20250;-73
2022/10/21 10:25:16;;;;;;;2.50;2.30;;;17.30;68.50;;;;;;5055800;28;20174;-73
2022/10/21 10:27:53;;;;;;;3.55;2.53;;;17.40;68.50;;;;;;5056502;28;20171;-72
2022/10/21 10:30:20;;;;;;;2.97;2.08;;;17.40;68.40;;;;;;5055018;28;20206;-73
2022/10/21 10:32:46;;;;;;;2.35;2.00;;;17.40;68.30;;;;;;5054745;28;20274;-72
2022/10/21 10:35:32;;;;;;;2.60;2.40;;;17.40;68.30;;;;;;5056308;28;20175;-72
2022/10/21 10:37:58;;;;;;;4.15;2.22;;;17.40;68.40;;;;;;5039686;28;20214;-73
2022/10/21 10:40:25;;;;;;;2.28;2.08;;;17.30;68.30;;;;;;5055353;28;20701;-72
2022/10/21 10:43:02;;;;;;;3.03;2.60;;;17.40;68.40;;;;;;5055248;28;20308;-73
2022/10/21 10:45:28;;;;;;;2.95;2.38;;;17.30;68.30;;;;;;5055778;28;20182;-74
2022/10/21 10:47:55;;;;;;;2.20;2.00;;;17.40;68.30;;;;;;5055072;28;20225;-73
2022/10/21 10:50:36;;;;;;;2.28;2.00;;;17.30;68.30;;;;;;5055809;28;20182;-73
2022/10/21 10:53:22;;;;;;;4.32;2.55;;;17.40;68.30;;;;;;5054978;28;20177;-72
2022/10/21 10:55:58;;;;;;;2.55;2.15;;;17.40;68.30;;;;;;5055047;28;20266;-73
2022/10/21 10:58:25;;;;;;;2.55;2.03;;;17.30;68.30;;;;;;5038381;28;20693;-74
2022/10/21 11:00:50;;;;;;;2.10;1.90;;;17.40;68.30;;;;;;5037626;28;20202;-73
2022/10/21 11:03:22;;;;;;;2.15;1.92;;;17.30;68.20;;;;;;5037927;28;20642;-72
2022/10/21 11:05:50;;;;;;;3.53;2.38;;;17.30;68.20;;;;;;5037804;28;20637;-72
2022/10/21 11:08:18;;;;;;;1.92;1.80;;;17.30;68.10;;;;;;5037933;28;20183;-72
2022/10/21 11:11:07;;;;;;;2.70;1.80;;;17.40;68.10;;;;;;5038347;28;20171;-73
2022/10/21 11:13:33;;;;;;;2.10;1.98;;;17.40;68.20;;;;;;5049764;28;20237;-72
2022/10/21 11:16:26;;;;;;;2.28;2.08;;;17.40;68.20;;;;;;5054129;28;20171;-72
2022/10/21 11:19:14;;;;;;;2.30;2.10;;;17.40;68.10;;;;;;5053373;28;20198;-72
2022/10/21 11:21:44;;;;;;;2.08;1.88;;;17.40;68.10;;;;;;5052566;28;20174;-72
2022/10/21 11:24:49;;;;;;;3.15;2.40;;;17.40;68.10;;;;;;5053168;28;20518;-72
2022/10/21 11:27:31;;;;;;;2.13;2.03;;;17.40;68.00;;;;;;5052706;28;20649;-73
2022/10/21 11:30:22;;;;;;;2.08;1.90;;;17.40;68.00;;;;;;5052662;28;20179;-72
2022/10/21 11:33:17;;;;;;;3.17;1.95;;;17.40;68.10;;;;;;5052670;28;20183;-72
2022/10/21 11:36:07;;;;;;;2.25;2.05;;;17.40;68.00;;;;;;5052666;28;20183;-72
2022/10/21 11:38:48;;;;;;;2.13;1.95;;;17.40;68.00;;;;;;5038220;28;20215;-72
2022/10/21 11:41:35;;;;;;;3.08;2.25;;;17.40;68.00;;;;;;5052109;28;20180;-72
2022/10/21 11:44:38;;;;;;;2.05;1.90;;;17.40;67.90;;;;;;5053885;28;20183;-73
2022/10/21 11:47:25;;;;;;;2.13;1.98;;;17.40;67.90;;;;;;5052705;28;20182;-73
2022/10/21 11:50:03;;;;;;;2.08;1.77;;;17.50;67.90;;;;;;5053288;28;20317;-72
2022/10/21 11:52:31;;;;;;;1.90;1.80;;;17.50;67.80;;;;;;5053911;28;20182;-72
2022/10/21 11:55:08;;;;;;;2.67;1.60;;;17.50;67.70;;;;;;5052815;28;20167;-72
2022/10/21 11:57:42;;;;;;;2.25;2.00;;;17.50;67.50;;;;;;5052558;28;20210;-73
2022/10/21 12:00:11;;;;;;;2.63;1.80;;;17.60;67.50;;;;;;5053565;28;20166;-73
2022/10/21 12:02:44;;;;;;;2.05;1.80;;;17.60;67.60;;;;;;5053107;28;20236;-72
2022/10/21 12:05:20;;;;;;;2.00;1.88;;;17.60;67.50;;;;;;5053326;28;20171;-72
2022/10/21 12:07:57;;;;;;;4.28;2.20;;;17.60;67.50;;;;;;5052412;28;20175;-72
2022/10/21 12:10:30;;;;;;;2.65;1.80;;;17.60;67.40;;;;;;5051654;28;20171;-72
2022/10/21 12:12:56;;;;;;;3.45;2.00;;;17.60;67.40;;;;;;5050002;28;96221;-72
2022/10/21 12:15:26;;;;;;;2.30;2.10;;;17.60;67.30;;;;;;5031128;28;20187;-72
2022/10/21 12:17:52;;;;;;;2.20;2.00;;;17.70;67.40;;;;;;5036312;28;20222;-72
2022/10/21 12:20:24;;;;;;;2.15;1.95;;;17.70;67.40;;;;;;5036334;28;20170;-72
2022/10/21 12:22:49;;;;;;;3.72;2.33;;;17.70;67.50;;;;;;5054320;28;20260;-72
2022/10/21 12:25:15;;;;;;;2.08;1.88;;;17.70;67.40;;;;;;5052306;28;20222;-72
2022/10/21 12:27:50;;;;;;;2.17;1.92;;;17.70;67.30;;;;;;5054390;28;20277;-72
2022/10/21 12:30:38;;;;;;;2.20;2.05;;;17.80;67.20;;;;;;5036734;28;20174;-71
2022/10/21 12:33:24;;;;;;;2.40;1.95;;;17.80;67.30;;;;;;5053913;28;20294;-71
2022/10/21 12:35:51;;;;;;;2.25;1.73;;;17.70;67.20;;;;;;5037289;28;20653;-71
2022/10/21 12:38:41;;;;;;;1.90;1.80;;;17.70;67.30;;;;;;5051165;28;20233;-71
2022/10/21 12:41:25;;;;;;;1.80;1.70;;;17.70;67.30;;;;;;5053678;28;20225;-71
2022/10/21 12:43:56;;;;;;;1.75;1.60;;;17.80;67.30;;;;;;5054199;28;20167;-71
2022/10/21 12:46:23;;;;;;;2.35;1.90;;;17.80;67.30;;;;;;5053116;28;20701;-71
2022/10/21 12:48:49;;;;;;;1.80;1.70;;;17.80;67.20;;;;;;5036394;28;20187;-72
2022/10/21 12:51:31;;;;;;;1.75;1.65;;;17.80;67.20;;;;;;5052918;28;20354;-71
2022/10/21 12:54:12;;;;;;;2.65;1.75;;;17.80;67.20;;;;;;5036991;28;20603;-71
2022/10/21 12:56:51;;;;;;;2.00;1.80;;;17.80;67.20;;;;;;5052595;28;20252;-72
2022/10/21 12:59:28;;;;;;;2.22;1.80;;;17.80;67.20;;;;;;5052771;28;20641;-71
2022/10/21 13:02:08;;;;;;;1.80;1.70;;;17.80;67.10;;;;;;5053688;28;20202;-71
2022/10/21 13:04:34;;;;;;;3.90;1.75;;;17.90;67.10;;;;;;5053444;28;20229;-71